sensor_id;sensor_type;location;lat;lon;timestamp;pressure;altitude;pressure_sealevel;temperature;humidity
57763;BME280;43592;42.524;12.052;2023-04-25T00:01:16;96229.13;;;7.64;100.00
57763;BME280;43592;42.524;12.052;2023-04-25T00:03:42;96215.69;;;7.60;100.00
57763;BME280;43592;42.524;12.052;2023-04-25T00:06:07;96221.47;;;7.62;100.00
57763;BME280;43592;42.524;12.052;2023-04-25T00:08:33;96224.91;;;7.63;100.00
57763;BME280;43592;42.524;12.052;2023-04-25T00:10:59;96218.59;;;7.68;100.00
57763;BME280;43592;42.524;12.052;2023-04-25T00:13:24;96216.72;;;7.80;100.00
57763;BME280;43592;42.524;12.052;2023-04-25T00:15:51;96211.66;;;7.87;100.00
57763;BME280;43592;42.524;12.052;2023-04-25T00:18:16;96206.66;;;7.98;100.00
57763;BME280;43592;42.524;12.052;2023-04-25T00:20:43;96201.09;;;8.03;100.00
57763;BME280;43592;42.524;12.052;2023-04-25T00:23:20;96201.22;;;8.07;100.00
57763;BME280;43592;42.524;12.052;2023-04-25T00:25:46;96206.97;;;8.09;100.00
57763;BME280;43592;42.524;12.052;2023-04-25T00:28:12;96195.91;;;8.07;100.00
57763;BME280;43592;42.524;12.052;2023-04-25T00:30:38;96205.44;;;8.08;100.00
57763;BME280;43592;42.524;12.052;2023-04-25T00:33:04;96201.22;;;8.07;100.00
57763;BME280;43592;42.524;12.052;2023-04-25T00:35:29;96192.44;;;8.06;100.00
57763;BME280;43592;42.524;12.052;2023-04-25T00:37:55;96192.88;;;8.08;100.00
57763;BME280;43592;42.524;12.052;2023-04-25T00:40:20;96193.53;;;8.18;100.00
57763;BME280;43592;42.524;12.052;2023-04-25T00:42:46;96194.34;;;8.18;100.00
57763;BME280;43592;42.524;12.052;2023-04-25T00:45:12;96201.53;;;8.18;100.00
57763;BME280;43592;42.524;12.052;2023-04-25T00:47:39;96190.44;;;8.16;100.00
57763;BME280;43592;42.524;12.052;2023-04-25T00:50:05;96194.56;;;8.13;100.00
57763;BME280;43592;42.524;12.052;2023-04-25T00:52:31;96192.78;;;8.05;100.00
57763;BME280;43592;42.524;12.052;2023-04-25T00:54:56;96201.09;;;7.91;100.00
57763;BME280;43592;42.524;12.052;2023-04-25T00:57:22;96214.06;;;7.80;100.00
57763;BME280;43592;42.524;12.052;2023-04-25T00:59:48;96203.63;;;7.75;100.00
57763;BME280;43592;42.524;12.052;2023-04-25T01:02:16;96210.50;;;7.76;100.00
57763;BME280;43592;42.524;12.052;2023-04-25T01:04:41;96204.53;;;7.79;100.00
57763;BME280;43592;42.524;12.052;2023-04-25T01:07:07;96206.97;;;7.84;100.00
57763;BME280;43592;42.524;12.052;2023-04-25T01:09:33;96211.75;;;7.91;100.00
57763;BME280;43592;42.524;12.052;2023-04-25T01:11:59;96215.66;;;7.94;100.00
57763;BME280;43592;42.524;12.052;2023-04-25T01:14:25;96216.09;;;7.96;100.00
57763;BME280;43592;42.524;12.052;2023-04-25T01:16:50;96213.44;;;7.96;100.00
57763;BME280;43592;42.524;12.052;2023-04-25T01:19:18;96202.31;;;7.94;100.00
57763;BME280;43592;42.524;12.052;2023-04-25T01:21:44;96199.66;;;7.94;100.00
57763;BME280;43592;42.524;12.052;2023-04-25T01:24:10;96211.44;;;7.93;100.00
57763;BME280;43592;42.524;12.052;2023-04-25T01:26:36;96201.09;;;7.91;100.00
57763;BME280;43592;42.524;12.052;2023-04-25T01:29:03;96205.97;;;7.89;100.00
57763;BME280;43592;42.524;12.052;2023-04-25T01:31:30;96211.66;;;7.87;100.00
57763;BME280;43592;42.524;12.052;2023-04-25T01:33:56;96207.75;;;7.85;100.00
57763;BME280;43592;42.524;12.052;2023-04-25T01:36:22;96198.84;;;7.81;100.00
57763;BME280;43592;42.524;12.052;2023-04-25T01:38:47;96196.06;;;7.77;100.00
57763;BME280;43592;42.524;12.052;2023-04-25T01:41:13;96193.31;;;7.74;100.00
57763;BME280;43592;42.524;12.052;2023-04-25T01:43:39;96197.88;;;7.73;100.00
57763;BME280;43592;42.524;12.052;2023-04-25T01:46:05;96196.44;;;7.76;100.00
57763;BME280;43592;42.524;12.052;2023-04-25T01:48:30;96200.53;;;7.73;100.00
57763;BME280;43592;42.524;12.052;2023-04-25T01:50:56;96201.19;;;7.70;100.00
57763;BME280;43592;42.524;12.052;2023-04-25T01:53:21;96212.38;;;7.63;100.00
57763;BME280;43592;42.524;12.052;2023-04-25T01:55:47;96201.81;;;7.55;100.00
57763;BME280;43592;42.524;12.052;2023-04-25T01:58:13;96203.78;;;7.46;100.00
57763;BME280;43592;42.524;12.052;2023-04-25T02:00:38;96190.38;;;7.42;100.00
57763;BME280;43592;42.524;12.052;2023-04-25T02:03:05;96196.34;;;7.39;100.00
57763;BME280;43592;42.524;12.052;2023-04-25T02:05:35;96187.56;;;7.38;100.00
57763;BME280;43592;42.524;12.052;2023-04-25T02:08:01;96199.00;;;7.39;100.00
57763;BME280;43592;42.524;12.052;2023-04-25T02:10:27;96189.44;;;7.38;100.00
57763;BME280;43592;42.524;12.052;2023-04-25T02:12:53;96193.13;;;7.33;100.00
57763;BME280;43592;42.524;12.052;2023-04-25T02:15:18;96199.06;;;7.30;100.00
57763;BME280;43592;42.524;12.052;2023-04-25T02:17:43;96191.63;;;7.24;100.00
57763;BME280;43592;42.524;12.052;2023-04-25T02:20:10;96195.59;;;7.17;100.00
57763;BME280;43592;42.524;12.052;2023-04-25T02:22:35;96199.22;;;7.13;100.00
57763;BME280;43592;42.524;12.052;2023-04-25T02:25:02;96198.66;;;7.07;100.00
57763;BME280;43592;42.524;12.052;2023-04-25T02:27:30;96195.88;;;7.04;100.00
57763;BME280;43592;42.524;12.052;2023-04-25T02:29:55;96195.09;;;7.03;100.00
57763;BME280;43592;42.524;12.052;2023-04-25T02:32:21;96186.00;;;7.04;100.00
57763;BME280;43592;42.524;12.052;2023-04-25T02:34:46;96180.25;;;7.02;100.00
57763;BME280;43592;42.524;12.052;2023-04-25T02:37:13;96182.78;;;6.98;100.00
57763;BME280;43592;42.524;12.052;2023-04-25T02:39:39;96178.75;;;6.92;100.00
57763;BME280;43592;42.524;12.052;2023-04-25T02:42:04;96169.72;;;6.85;100.00
57763;BME280;43592;42.524;12.052;2023-04-25T02:44:30;96167.94;;;6.77;100.00
57763;BME280;43592;42.524;12.052;2023-04-25T02:46:55;96166.13;;;6.68;100.00
57763;BME280;43592;42.524;12.052;2023-04-25T02:49:21;96162.75;;;6.59;100.00
57763;BME280;43592;42.524;12.052;2023-04-25T02:51:46;96157.19;;;6.52;100.00
57763;BME280;43592;42.524;12.052;2023-04-25T02:54:12;96160.34;;;6.45;100.00
57763;BME280;43592;42.524;12.052;2023-04-25T02:56:37;96164.63;;;6.38;100.00
57763;BME280;43592;42.524;12.052;2023-04-25T02:59:03;96158.25;;;6.30;100.00
57763;BME280;43592;42.524;12.052;2023-04-25T03:01:28;96155.00;;;6.24;100.00
57763;BME280;43592;42.524;12.052;2023-04-25T03:03:53;96154.41;;;6.19;100.00
57763;BME280;43592;42.524;12.052;2023-04-25T03:06:19;96152.28;;;6.12;100.00
57763;BME280;43592;42.524;12.052;2023-04-25T03:08:45;96158.25;;;6.09;100.00
57763;BME280;43592;42.524;12.052;2023-04-25T03:11:10;96143.38;;;6.08;100.00
57763;BME280;43592;42.524;12.052;2023-04-25T03:13:36;96152.13;;;6.08;100.00
57763;BME280;43592;42.524;12.052;2023-04-25T03:16:01;96144.03;;;6.05;100.00
57763;BME280;43592;42.524;12.052;2023-04-25T03:18:27;96137.03;;;6.00;100.00
57763;BME280;43592;42.524;12.052;2023-04-25T03:20:52;96134.88;;;5.94;100.00
57763;BME280;43592;42.524;12.052;2023-04-25T03:23:18;96144.22;;;5.91;100.00
57763;BME280;43592;42.524;12.052;2023-04-25T03:25:43;96150.50;;;5.87;100.00
57763;BME280;43592;42.524;12.052;2023-04-25T03:28:08;96146.16;;;5.82;100.00
57763;BME280;43592;42.524;12.052;2023-04-25T03:30:34;96145.97;;;5.87;100.00
57763;BME280;43592;42.524;12.052;2023-04-25T03:32:59;96151.88;;;5.93;100.00
57763;BME280;43592;42.524;12.052;2023-04-25T03:35:25;96141.25;;;6.01;100.00
57763;BME280;43592;42.524;12.052;2023-04-25T03:37:51;96145.72;;;6.10;100.00
57763;BME280;43592;42.524;12.052;2023-04-25T03:40:16;96152.69;;;6.23;100.00
57763;BME280;43592;42.524;12.052;2023-04-25T03:42:41;96152.47;;;6.28;100.00
57763;BME280;43592;42.524;12.052;2023-04-25T03:45:07;96164.94;;;6.36;100.00
57763;BME280;43592;42.524;12.052;2023-04-25T03:47:33;96162.09;;;6.41;100.00
57763;BME280;43592;42.524;12.052;2023-04-25T03:49:58;96160.22;;;6.42;100.00
57763;BME280;43592;42.524;12.052;2023-04-25T03:52:25;96162.56;;;6.43;100.00
57763;BME280;43592;42.524;12.052;2023-04-25T03:54:51;96173.31;;;6.47;100.00
57763;BME280;43592;42.524;12.052;2023-04-25T03:57:16;96176.28;;;6.45;100.00
57763;BME280;43592;42.524;12.052;2023-04-25T03:59:42;96175.50;;;6.45;100.00
57763;BME280;43592;42.524;12.052;2023-04-25T04:02:07;96173.00;;;6.48;100.00
57763;BME280;43592;42.524;12.052;2023-04-25T04:04:33;96164.81;;;6.53;100.00
57763;BME280;43592;42.524;12.052;2023-04-25T04:06:58;96162.09;;;6.62;100.00
57763;BME280;43592;42.524;12.052;2023-04-25T04:09:24;96159.25;;;6.67;100.00
57763;BME280;43592;42.524;12.052;2023-04-25T04:11:50;96162.47;;;6.73;100.00
57763;BME280;43592;42.524;12.052;2023-04-25T04:14:15;96175.94;;;6.77;100.00
57763;BME280;43592;42.524;12.052;2023-04-25T04:16:41;96166.00;;;6.86;100.00
57763;BME280;43592;42.524;12.052;2023-04-25T04:19:07;96160.91;;;6.93;100.00
57763;BME280;43592;42.524;12.052;2023-04-25T04:21:32;96156.94;;;6.99;100.00
57763;BME280;43592;42.524;12.052;2023-04-25T04:23:58;96167.16;;;6.97;100.00
57763;BME280;43592;42.524;12.052;2023-04-25T04:26:25;96177.44;;;6.98;100.00
57763;BME280;43592;42.524;12.052;2023-04-25T04:28:51;96175.06;;;7.06;100.00
57763;BME280;43592;42.524;12.052;2023-04-25T04:31:17;96164.53;;;7.09;100.00
57763;BME280;43592;42.524;12.052;2023-04-25T04:33:44;96166.88;;;7.11;100.00
57763;BME280;43592;42.524;12.052;2023-04-25T04:36:10;96167.06;;;7.06;100.00
57763;BME280;43592;42.524;12.052;2023-04-25T04:38:36;96169.38;;;7.07;100.00
57763;BME280;43592;42.524;12.052;2023-04-25T04:41:02;96183.03;;;7.06;100.00
57763;BME280;43592;42.524;12.052;2023-04-25T04:43:28;96179.78;;;7.00;100.00
57763;BME280;43592;42.524;12.052;2023-04-25T04:45:54;96154.03;;;6.92;100.00
57763;BME280;43592;42.524;12.052;2023-04-25T04:48:21;96153.78;;;6.85;100.00
57763;BME280;43592;42.524;12.052;2023-04-25T04:50:47;96152.56;;;6.82;100.00
57763;BME280;43592;42.524;12.052;2023-04-25T04:53:12;96160.56;;;6.82;100.00
57763;BME280;43592;42.524;12.052;2023-04-25T04:55:38;96163.06;;;6.79;100.00
57763;BME280;43592;42.524;12.052;2023-04-25T04:58:04;96170.03;;;6.71;100.00
57763;BME280;43592;42.524;12.052;2023-04-25T05:00:29;96162.56;;;6.64;100.00
57763;BME280;43592;42.524;12.052;2023-04-25T05:02:55;96156.66;;;6.59;100.00
57763;BME280;43592;42.524;12.052;2023-04-25T05:05:23;96159.31;;;6.59;100.00
57763;BME280;43592;42.524;12.052;2023-04-25T05:07:48;96161.66;;;6.60;100.00
57763;BME280;43592;42.524;12.052;2023-04-25T05:10:14;96155.69;;;6.63;100.00
57763;BME280;43592;42.524;12.052;2023-04-25T05:12:40;96152.84;;;6.68;100.00
57763;BME280;43592;42.524;12.052;2023-04-25T05:15:05;96156.50;;;6.76;100.00
57763;BME280;43592;42.524;12.052;2023-04-25T05:17:31;96148.81;;;6.83;100.00
57763;BME280;43592;42.524;12.052;2023-04-25T05:19:57;96156.34;;;6.93;100.00
57763;BME280;43592;42.524;12.052;2023-04-25T05:22:23;96152.06;;;7.01;100.00
57763;BME280;43592;42.524;12.052;2023-04-25T05:24:48;96153.09;;;7.09;100.00
57763;BME280;43592;42.524;12.052;2023-04-25T05:27:16;96147.25;;;7.15;100.00
57763;BME280;43592;42.524;12.052;2023-04-25T05:29:41;96150.94;;;7.23;100.00
57763;BME280;43592;42.524;12.052;2023-04-25T05:32:07;96154.28;;;7.32;100.00
57763;BME280;43592;42.524;12.052;2023-04-25T05:34:33;96151.66;;;7.45;100.00
57763;BME280;43592;42.524;12.052;2023-04-25T05:36:59;96161.19;;;7.58;100.00
57763;BME280;43592;42.524;12.052;2023-04-25T05:39:24;96157.25;;;7.76;100.00
57763;BME280;43592;42.524;12.052;2023-04-25T05:41:50;96158.16;;;7.93;100.00
57763;BME280;43592;42.524;12.052;2023-04-25T05:44:15;96157.00;;;8.06;100.00
57763;BME280;43592;42.524;12.052;2023-04-25T05:46:41;96168.25;;;8.24;100.00
57763;BME280;43592;42.524;12.052;2023-04-25T05:49:06;96166.56;;;8.44;100.00
57763;BME280;43592;42.524;12.052;2023-04-25T05:51:32;96167.09;;;8.62;100.00
57763;BME280;43592;42.524;12.052;2023-04-25T05:53:57;96152.69;;;8.79;100.00
57763;BME280;43592;42.524;12.052;2023-04-25T05:56:23;96158.44;;;8.93;100.00
57763;BME280;43592;42.524;12.052;2023-04-25T05:58:48;96164.47;;;9.06;100.00
57763;BME280;43592;42.524;12.052;2023-04-25T06:01:14;96162.53;;;9.18;100.00
57763;BME280;43592;42.524;12.052;2023-04-25T06:03:39;96165.59;;;9.33;100.00
57763;BME280;43592;42.524;12.052;2023-04-25T06:06:08;96158.38;;;9.49;100.00
57763;BME280;43592;42.524;12.052;2023-04-25T06:08:33;96158.28;;;9.93;100.00
57763;BME280;43592;42.524;12.052;2023-04-25T06:10:59;96152.75;;;10.69;100.00
57763;BME280;43592;42.524;12.052;2023-04-25T06:13:24;96142.56;;;11.59;100.00
57763;BME280;43592;42.524;12.052;2023-04-25T06:15:50;96122.19;;;12.27;100.00
57763;BME280;43592;42.524;12.052;2023-04-25T06:18:16;96109.81;;;12.46;100.00
57763;BME280;43592;42.524;12.052;2023-04-25T06:20:41;96111.44;;;12.54;100.00
57763;BME280;43592;42.524;12.052;2023-04-25T06:23:07;96111.44;;;12.54;100.00
57763;BME280;43592;42.524;12.052;2023-04-25T06:25:32;96115.84;;;12.69;100.00
57763;BME280;43592;42.524;12.052;2023-04-25T06:27:58;96097.97;;;13.18;100.00
57763;BME280;43592;42.524;12.052;2023-04-25T06:30:23;96108.03;;;13.65;100.00
57763;BME280;43592;42.524;12.052;2023-04-25T06:32:51;96116.34;;;13.98;100.00
57763;BME280;43592;42.524;12.052;2023-04-25T06:35:16;96119.50;;;14.07;100.00
57763;BME280;43592;42.524;12.052;2023-04-25T06:37:42;96125.38;;;14.23;100.00
57763;BME280;43592;42.524;12.052;2023-04-25T06:40:07;96121.75;;;14.53;100.00
57763;BME280;43592;42.524;12.052;2023-04-25T06:42:33;96121.06;;;14.77;100.00
57763;BME280;43592;42.524;12.052;2023-04-25T06:44:59;96122.63;;;14.78;100.00
57763;BME280;43592;42.524;12.052;2023-04-25T06:47:24;96127.59;;;14.69;100.00
57763;BME280;43592;42.524;12.052;2023-04-25T06:49:50;96124.09;;;14.62;100.00
57763;BME280;43592;42.524;12.052;2023-04-25T06:52:15;96128.88;;;15.00;100.00
57763;BME280;43592;42.524;12.052;2023-04-25T06:54:43;96124.34;;;15.40;100.00
57763;BME280;43592;42.524;12.052;2023-04-25T06:57:08;96125.97;;;15.84;100.00
57763;BME280;43592;42.524;12.052;2023-04-25T06:59:34;96125.88;;;16.59;100.00
57763;BME280;43592;42.524;12.052;2023-04-25T07:01:59;96119.63;;;17.61;100.00
57763;BME280;43592;42.524;12.052;2023-04-25T07:04:25;96119.47;;;18.28;98.15
57763;BME280;43592;42.524;12.052;2023-04-25T07:06:50;96122.97;;;19.00;90.54
57763;BME280;43592;42.524;12.052;2023-04-25T07:09:16;96125.50;;;19.42;85.78
57763;BME280;43592;42.524;12.052;2023-04-25T07:11:41;96125.56;;;19.11;74.47
57763;BME280;43592;42.524;12.052;2023-04-25T07:14:07;96124.56;;;19.28;80.30
57763;BME280;43592;42.524;12.052;2023-04-25T07:16:32;96129.22;;;19.55;77.20
57763;BME280;43592;42.524;12.052;2023-04-25T07:18:58;96129.69;;;19.77;80.07
57763;BME280;43592;42.524;12.052;2023-04-25T07:21:24;96121.31;;;20.15;76.88
57763;BME280;43592;42.524;12.052;2023-04-25T07:23:50;96128.16;;;20.47;74.67
57763;BME280;43592;42.524;12.052;2023-04-25T07:26:16;96121.53;;;20.48;69.33
57763;BME280;43592;42.524;12.052;2023-04-25T07:28:41;96126.88;;;20.75;74.13
57763;BME280;43592;42.524;12.052;2023-04-25T07:31:08;96127.84;;;20.65;69.11
57763;BME280;43592;42.524;12.052;2023-04-25T07:33:34;96127.50;;;20.62;72.81
57763;BME280;43592;42.524;12.052;2023-04-25T07:35:59;96127.28;;;20.53;70.04
57763;BME280;43592;42.524;12.052;2023-04-25T07:38:25;96125.56;;;20.39;72.52
57763;BME280;43592;42.524;12.052;2023-04-25T07:40:50;96125.56;;;20.39;72.85
57763;BME280;43592;42.524;12.052;2023-04-25T07:43:16;96125.44;;;20.23;68.47
57763;BME280;43592;42.524;12.052;2023-04-25T07:45:45;96121.84;;;20.06;67.51
57763;BME280;43592;42.524;12.052;2023-04-25T07:48:11;96119.22;;;20.46;71.07
57763;BME280;43592;42.524;12.052;2023-04-25T07:50:37;96116.13;;;20.24;67.79
57763;BME280;43592;42.524;12.052;2023-04-25T07:53:02;96127.72;;;20.48;70.88
57763;BME280;43592;42.524;12.052;2023-04-25T07:55:28;96123.88;;;20.46;69.61
57763;BME280;43592;42.524;12.052;2023-04-25T07:57:53;96126.94;;;20.71;72.34
57763;BME280;43592;42.524;12.052;2023-04-25T08:00:19;96120.47;;;20.41;69.92
57763;BME280;43592;42.524;12.052;2023-04-25T08:02:44;96117.38;;;20.63;69.08
57763;BME280;43592;42.524;12.052;2023-04-25T10:07:08;96119.66;;;18.51;61.72
57763;BME280;43592;42.524;12.052;2023-04-25T10:09:36;96119.47;;;18.28;67.06
57763;BME280;43592;42.524;12.052;2023-04-25T10:12:02;96119.78;;;17.95;66.53
57763;BME280;43592;42.524;12.052;2023-04-25T10:14:29;96108.75;;;17.65;65.65
57763;BME280;43592;42.524;12.052;2023-04-25T10:16:54;96111.69;;;17.33;67.29
57763;BME280;43592;42.524;12.052;2023-04-25T10:19:21;96107.56;;;17.10;71.48
57763;BME280;43592;42.524;12.052;2023-04-25T10:21:50;96104.97;;;16.85;72.80
57763;BME280;43592;42.524;12.052;2023-04-25T10:24:16;96115.06;;;16.59;75.37
57763;BME280;43592;42.524;12.052;2023-04-25T10:26:42;96108.94;;;16.45;79.12
57763;BME280;43592;42.524;12.052;2023-04-25T10:29:08;96100.47;;;16.32;81.41
57763;BME280;43592;42.524;12.052;2023-04-25T10:31:38;96090.84;;;16.20;78.47
57763;BME280;43592;42.524;12.052;2023-04-25T10:34:09;96082.34;;;16.22;82.01
57763;BME280;43592;42.524;12.052;2023-04-25T10:36:35;96073.09;;;16.30;78.55
57763;BME280;43592;42.524;12.052;2023-04-25T10:39:03;96077.69;;;16.40;78.69
57763;BME280;43592;42.524;12.052;2023-04-25T10:41:32;96076.53;;;16.45;75.62
57763;BME280;43592;42.524;12.052;2023-04-25T10:44:10;96076.16;;;16.43;76.68
57763;BME280;43592;42.524;12.052;2023-04-25T10:46:36;96069.59;;;16.36;78.74
57763;BME280;43592;42.524;12.052;2023-04-25T10:49:02;96078.13;;;16.28;81.48
57763;BME280;43592;42.524;12.052;2023-04-25T10:53:57;96084.34;;;15.85;83.92
57763;BME280;43592;42.524;12.052;2023-04-25T10:56:24;96092.78;;;15.59;88.85
57763;BME280;43592;42.524;12.052;2023-04-25T10:58:50;96096.59;;;15.25;92.52
57763;BME280;43592;42.524;12.052;2023-04-25T11:01:20;96087.31;;;15.09;95.88
57763;BME280;43592;42.524;12.052;2023-04-25T11:03:45;96071.50;;;14.96;100.00
57763;BME280;43592;42.524;12.052;2023-04-25T11:06:55;96092.72;;;15.19;100.00
57763;BME280;43592;42.524;12.052;2023-04-25T11:09:02;96087.41;;;15.66;97.33
57763;BME280;43592;42.524;12.052;2023-04-25T11:11:28;96079.72;;;15.86;94.82
57763;BME280;43592;42.524;12.052;2023-04-25T11:13:54;96078.16;;;16.06;90.35
57763;BME280;43592;42.524;12.052;2023-04-25T11:16:20;96057.69;;;16.12;89.61
57763;BME280;43592;42.524;12.052;2023-04-25T11:18:49;96058.84;;;16.15;88.26
57763;BME280;43592;42.524;12.052;2023-04-25T11:21:15;96045.34;;;16.22;88.08
57763;BME280;43592;42.524;12.052;2023-04-25T11:23:41;96045.72;;;16.24;91.76
57763;BME280;43592;42.524;12.052;2023-04-25T11:26:10;96036.09;;;16.23;92.58
57763;BME280;43592;42.524;12.052;2023-04-25T11:28:36;96060.44;;;16.05;93.55
57763;BME280;43592;42.524;12.052;2023-04-25T11:31:02;96053.50;;;15.83;100.00
57763;BME280;43592;42.524;12.052;2023-04-25T11:33:27;96060.41;;;15.62;100.00
57763;BME280;43592;42.524;12.052;2023-04-25T11:35:53;96049.63;;;15.44;100.00
57763;BME280;43592;42.524;12.052;2023-04-25T11:38:20;96045.38;;;15.25;100.00
57763;BME280;43592;42.524;12.052;2023-04-25T11:40:49;96032.69;;;15.83;100.00
57763;BME280;43592;42.524;12.052;2023-04-25T11:43:14;96020.97;;;16.44;100.00
57763;BME280;43592;42.524;12.052;2023-04-25T11:45:40;96015.59;;;17.17;98.27
57763;BME280;43592;42.524;12.052;2023-04-25T11:48:06;96020.41;;;17.92;96.19
57763;BME280;43592;42.524;12.052;2023-04-25T11:50:32;96030.13;;;18.58;92.00
57763;BME280;43592;42.524;12.052;2023-04-25T11:52:57;96023.06;;;18.99;85.19
57763;BME280;43592;42.524;12.052;2023-04-25T11:55:23;96017.47;;;19.10;79.13
57763;BME280;43592;42.524;12.052;2023-04-25T11:57:49;96009.56;;;19.22;85.37
57763;BME280;43592;42.524;12.052;2023-04-25T12:00:21;96001.13;;;19.40;86.32
57763;BME280;43592;42.524;12.052;2023-04-25T12:02:51;95985.97;;;19.43;84.96
57763;BME280;43592;42.524;12.052;2023-04-25T12:05:17;95983.72;;;19.61;81.57
57763;BME280;43592;42.524;12.052;2023-04-25T12:07:42;95975.56;;;20.08;85.07
57763;BME280;43592;42.524;12.052;2023-04-25T12:10:09;95974.50;;;20.42;76.05
57763;BME280;43592;42.524;12.052;2023-04-25T12:12:36;95980.59;;;20.86;74.02
57763;BME280;43592;42.524;12.052;2023-04-25T12:15:08;95978.16;;;21.08;67.64
57763;BME280;43592;42.524;12.052;2023-04-25T12:17:35;95978.03;;;20.79;62.78
57763;BME280;43592;42.524;12.052;2023-04-25T12:20:05;95978.47;;;20.94;73.18
57763;BME280;43592;42.524;12.052;2023-04-25T12:22:31;95977.97;;;20.82;69.02
57763;BME280;43592;42.524;12.052;2023-04-25T12:24:57;95986.16;;;20.99;66.65
57763;BME280;43592;42.524;12.052;2023-04-25T12:27:23;95974.19;;;21.29;72.55
57763;BME280;43592;42.524;12.052;2023-04-25T12:29:51;95975.41;;;21.44;66.15
57763;BME280;43592;42.524;12.052;2023-04-25T12:32:17;95978.22;;;21.41;66.88
57763;BME280;43592;42.524;12.052;2023-04-25T12:34:43;95972.84;;;21.53;68.34
57763;BME280;43592;42.524;12.052;2023-04-25T12:37:09;95972.84;;;21.53;62.02
57763;BME280;43592;42.524;12.052;2023-04-25T12:39:34;95978.84;;;21.78;62.46
57763;BME280;43592;42.524;12.052;2023-04-25T12:42:00;95975.16;;;21.39;55.75
57763;BME280;43592;42.524;12.052;2023-04-25T12:44:26;95966.97;;;21.39;55.30
57763;BME280;43592;42.524;12.052;2023-04-25T12:46:51;95973.41;;;21.28;57.59
57763;BME280;43592;42.524;12.052;2023-04-25T12:49:18;95961.06;;;20.55;57.59
57763;BME280;43592;42.524;12.052;2023-04-25T12:51:43;95962.44;;;20.43;59.64
57763;BME280;43592;42.524;12.052;2023-04-25T12:54:08;95964.22;;;20.13;59.77
57763;BME280;43592;42.524;12.052;2023-04-25T12:56:35;95949.31;;;20.22;61.11
57763;BME280;43592;42.524;12.052;2023-04-25T12:59:01;95949.44;;;20.34;59.90
57763;BME280;43592;42.524;12.052;2023-04-25T13:01:28;95955.19;;;20.76;59.98
57763;BME280;43592;42.524;12.052;2023-04-25T13:03:53;95942.78;;;20.92;58.68
57763;BME280;43592;42.524;12.052;2023-04-25T13:06:19;95940.16;;;21.04;56.03
57763;BME280;43592;42.524;12.052;2023-04-25T13:08:45;95944.00;;;21.40;56.21
57763;BME280;43592;42.524;12.052;2023-04-25T13:11:11;95943.41;;;21.16;55.66
57763;BME280;43592;42.524;12.052;2023-04-25T13:13:37;95946.00;;;20.70;54.98
57763;BME280;43592;42.524;12.052;2023-04-25T13:16:02;95953.97;;;20.61;53.48
57763;BME280;43592;42.524;12.052;2023-04-25T13:18:29;95952.78;;;20.42;51.94
57763;BME280;43592;42.524;12.052;2023-04-25T13:20:54;95937.06;;;20.13;57.05
57763;BME280;43592;42.524;12.052;2023-04-25T13:23:20;95939.19;;;19.82;55.46
57763;BME280;43592;42.524;12.052;2023-04-25T13:25:46;95948.97;;;20.00;58.74
57763;BME280;43592;42.524;12.052;2023-04-25T13:28:12;95949.78;;;20.16;59.19
57763;BME280;43592;42.524;12.052;2023-04-25T13:30:37;95952.97;;;20.31;54.79
57763;BME280;43592;42.524;12.052;2023-04-25T13:33:03;95939.88;;;20.46;54.36
57763;BME280;43592;42.524;12.052;2023-04-25T13:35:29;95939.94;;;20.62;54.08
57763;BME280;43592;42.524;12.052;2023-04-25T13:37:55;95936.13;;;20.60;52.31
57763;BME280;43592;42.524;12.052;2023-04-25T13:40:21;95938.03;;;20.79;53.09
57763;BME280;43592;42.524;12.052;2023-04-25T13:42:46;95938.97;;;20.89;52.00
57763;BME280;43592;42.524;12.052;2023-04-25T13:45:12;95931.59;;;20.90;51.94
57763;BME280;43592;42.524;12.052;2023-04-25T13:47:37;95939.28;;;20.75;51.42
57763;BME280;43592;42.524;12.052;2023-04-25T13:50:03;95928.22;;;20.46;53.08
57763;BME280;43592;42.524;12.052;2023-04-25T13:52:30;95942.75;;;19.99;51.58
57763;BME280;43592;42.524;12.052;2023-04-25T13:54:56;95937.56;;;19.65;53.55
57763;BME280;43592;42.524;12.052;2023-04-25T13:57:21;95936.34;;;19.22;53.62
57763;BME280;43592;42.524;12.052;2023-04-25T13:59:47;95930.69;;;18.86;54.90
57763;BME280;43592;42.524;12.052;2023-04-25T14:02:12;95924.56;;;18.51;54.94
57763;BME280;43592;42.524;12.052;2023-04-25T14:04:38;95922.31;;;18.15;55.37
57763;BME280;43592;42.524;12.052;2023-04-25T14:07:03;95933.97;;;17.78;55.84
57763;BME280;43592;42.524;12.052;2023-04-25T14:09:30;95932.63;;;17.52;56.22
57763;BME280;43592;42.524;12.052;2023-04-25T14:11:55;95935.03;;;17.43;58.59
57763;BME280;43592;42.524;12.052;2023-04-25T14:14:21;95925.34;;;17.45;56.63
57763;BME280;43592;42.524;12.052;2023-04-25T14:16:47;95927.28;;;17.45;55.97
57763;BME280;43592;42.524;12.052;2023-04-25T14:19:16;95935.03;;;17.43;55.68
57763;BME280;43592;42.524;12.052;2023-04-25T14:21:42;95940.41;;;17.46;56.66
57763;BME280;43592;42.524;12.052;2023-04-25T14:24:10;95931.06;;;17.55;57.01
57763;BME280;43592;42.524;12.052;2023-04-25T14:26:36;95922.47;;;17.63;54.42
57763;BME280;43592;42.524;12.052;2023-04-25T14:29:03;95924.31;;;17.73;55.46
57763;BME280;43592;42.524;12.052;2023-04-25T14:31:28;95927.78;;;17.74;53.68
57763;BME280;43592;42.524;12.052;2023-04-25T14:33:54;95922.72;;;17.80;54.15
57763;BME280;43592;42.524;12.052;2023-04-25T14:36:19;95921.16;;;17.82;53.53
57763;BME280;43592;42.524;12.052;2023-04-25T14:38:45;95923.81;;;17.86;55.39
57763;BME280;43592;42.524;12.052;2023-04-25T14:41:10;95925.25;;;17.94;55.42
57763;BME280;43592;42.524;12.052;2023-04-25T14:43:36;95921.03;;;17.93;54.38
57763;BME280;43592;42.524;12.052;2023-04-25T14:46:02;95916.50;;;17.83;53.23
57763;BME280;43592;42.524;12.052;2023-04-25T14:48:28;95923.59;;;17.66;54.72